Time;durP1;ratioP1;P1;durP2;ratioP2;P2;SDS_P1;SDS_P2;PMS_P1;PMS_P2;Temp;Humidity;BMP_temperature;BMP_pressure;BME280_temperature;BME280_humidity;BME280_pressure;Samples;Min_cycle;Max_cycle;Signal;HPM_P1;HPM_P2
2022/12/31 00:01:47;;;;;;;0.35;0.17;;;;;;;15.65;100.00;99547.38;8290772;28;20045;-56
2022/12/31 00:05:47;;;;;;;1.25;0.20;;;;;;;15.67;100.00;99534.44;8289649;28;20042;-56
2022/12/31 00:09:47;;;;;;;0.55;0.08;;;;;;;15.89;100.00;99531.66;8290436;28;20046;-56
2022/12/31 00:13:48;;;;;;;0.08;0.08;;;;;;;15.77;100.00;99544.13;8290553;28;20034;-57
2022/12/31 00:17:49;;;;;;;0.20;0.17;;;;;;;15.80;100.00;99547.31;8290377;28;20065;-55
2022/12/31 00:21:49;;;;;;;0.10;0.10;;;;;;;15.79;100.00;99539.34;8290068;28;20042;-54
2022/12/31 00:25:50;;;;;;;0.10;0.10;;;;;;;15.77;100.00;99545.81;8289405;28;20411;-55
2022/12/31 00:29:50;;;;;;;0.30;0.10;;;;;;;15.89;100.00;99542.56;8287973;28;20069;-56
2022/12/31 00:33:51;;;;;;;0.10;0.10;;;;;;;15.87;100.00;99540.03;8288550;28;20179;-54
2022/12/31 00:37:52;;;;;;;0.20;0.10;;;;;;;15.93;100.00;99550.16;8288440;28;20116;-56
2022/12/31 00:41:53;;;;;;;1.00;0.10;;;;;;;16.05;100.00;99542.25;8287962;28;20041;-55
2022/12/31 00:45:53;;;;;;;0.95;0.10;;;;;;;16.11;100.00;99525.94;8286561;28;20033;-56
2022/12/31 00:49:54;;;;;;;0.08;0.08;;;;;;;16.23;100.00;99528.94;8303959;28;20041;-56
2022/12/31 00:53:55;;;;;;;0.05;0.03;;;;;;;16.30;99.63;99533.41;8289123;28;20486;-54
2022/12/31 00:57:56;;;;;;;0.10;0.10;;;;;;;16.28;99.84;99527.28;8288343;28;20041;-53
2022/12/31 01:01:57;;;;;;;0.10;0.10;;;;;;;16.40;99.32;99520.22;8288721;28;20041;-55
2022/12/31 01:05:57;;;;;;;0.00;0.00;;;;;;;16.40;99.48;99530.28;8287998;28;20034;-54
2022/12/31 01:09:58;;;;;;;0.10;0.03;;;;;;;16.51;99.55;99532.50;8289036;28;20073;-56
2022/12/31 01:14:03;;;;;;;0.00;0.00;;;;;;;16.57;99.26;99526.22;8288414;28;20149;-56
2022/12/31 01:18:05;;;;;;;0.10;0.00;;;;;;;16.66;98.74;99535.94;8286006;28;20041;-56
2022/12/31 01:22:06;;;;;;;0.10;0.10;;;;;;;16.65;99.14;99535.06;8288002;28;20060;-56
2022/12/31 01:26:08;;;;;;;0.00;0.00;;;;;;;16.71;99.00;99527.97;8287685;28;20041;-55
2022/12/31 01:30:09;;;;;;;0.10;0.00;;;;;;;16.60;100.00;99529.41;8286703;28;20049;-55
2022/12/31 01:34:10;;;;;;;0.08;0.08;;;;;;;16.59;100.00;99535.88;8287198;28;20042;-56
2022/12/31 01:38:10;;;;;;;0.13;0.00;;;;;;;16.59;100.00;99548.72;8288098;28;20038;-56
2022/12/31 01:42:11;;;;;;;0.10;0.00;;;;;;;16.64;100.00;99554.38;8287664;28;20117;-55
2022/12/31 01:46:17;;;;;;;0.00;0.00;;;;;;;16.60;100.00;99547.66;8287490;28;20073;-56
2022/12/31 01:50:24;;;;;;;0.00;0.00;;;;;;;16.72;100.00;99548.75;8276318;28;20036;-55
2022/12/31 01:54:26;;;;;;;0.10;0.10;;;;;;;16.62;100.00;99549.13;8283565;28;20087;-56
2022/12/31 01:58:48;;;;;;;1.02;0.10;;;;;;;16.68;100.00;99544.75;8275164;28;20075;-56
2022/12/31 02:02:49;;;;;;;1.45;0.00;;;;;;;16.65;98.80;99550.63;8265413;28;20042;-52
2022/12/31 02:06:55;;;;;;;0.10;0.00;;;;;;;16.72;98.36;99548.75;8268352;28;20137;-55
2022/12/31 02:10:55;;;;;;;0.00;0.00;;;;;;;17.03;92.97;99541.75;8266086;28;20049;-55
2022/12/31 02:14:56;;;;;;;0.10;0.10;;;;;;;17.32;89.94;99538.66;8250674;28;20506;-55
2022/12/31 02:19:18;;;;;;;0.20;0.10;;;;;;;17.40;88.90;99551.28;8257036;28;20118;-55
2022/12/31 02:23:58;;;;;;;0.00;0.00;;;;;;;17.44;88.60;99552.56;8257304;28;20117;-56
2022/12/31 02:28:30;;;;;;;0.63;0.10;;;;;;;17.49;88.11;99559.09;8249433;28;20045;-56
2022/12/31 02:32:56;;;;;;;0.00;0.00;;;;;;;17.41;88.81;99552.94;8285311;28;20045;-56
2022/12/31 02:36:59;;;;;;;0.10;0.10;;;;;;;17.45;88.73;99570.66;8255986;28;20043;-56
2022/12/31 02:41:00;;;;;;;0.10;0.10;;;;;;;17.43;89.02;99572.75;8256749;28;20046;-56
2022/12/31 02:45:00;;;;;;;0.08;0.08;;;;;;;17.36;89.64;99577.34;8256184;28;20042;-56
2022/12/31 02:49:11;;;;;;;0.10;0.10;;;;;;;17.60;88.07;99579.53;8255880;28;20121;-56
2022/12/31 02:53:40;;;;;;;0.30;0.00;;;;;;;17.70;87.61;99582.69;8257140;28;20042;-56
2022/12/31 02:57:52;;;;;;;0.80;0.10;;;;;;;17.72;87.10;99569.66;8273565;28;20125;-57
2022/12/31 03:02:18;;;;;;;1.88;0.20;;;;;;;17.83;86.80;99582.69;8288272;28;20057;-56
2022/12/31 03:06:18;;;;;;;0.30;0.10;;;;;;;17.76;87.47;99590.03;8289991;28;20029;-55
2022/12/31 03:10:20;;;;;;;0.47;0.00;;;;;;;17.68;88.49;99587.50;8291474;28;20088;-57
2022/12/31 03:14:20;;;;;;;0.00;0.00;;;;;;;17.62;89.69;99604.72;8288427;28;20048;-56
2022/12/31 03:22:26;;;;;;;0.00;0.00;;;;;;;17.46;90.73;99584.13;8287520;28;20038;-50
2022/12/31 03:22:43;;;;;;;0.00;0.00;;;;;;;17.32;92.04;99587.81;8290827;28;20040;-50
2022/12/31 03:26:43;;;;;;;0.20;0.10;;;;;;;17.31;92.41;99579.84;8291217;28;20468;-55
2022/12/31 03:30:48;;;;;;;0.00;0.00;;;;;;;17.32;91.90;99584.25;8297591;28;20394;-54
2022/12/31 03:34:48;;;;;;;;;;;;;;;17.43;90.87;99583.69;8311074;28;20070;-56
2022/12/31 03:38:48;;;;;;;0.00;0.00;;;;;;;17.49;90.08;99600.09;8292553;28;20517;-56
2022/12/31 03:42:49;;;;;;;0.38;0.00;;;;;;;17.60;89.44;99604.13;8285758;28;20492;-54
2022/12/31 03:46:49;;;;;;;0.08;0.03;;;;;;;17.49;90.25;99583.72;8292733;28;20034;-56
2022/12/31 03:50:50;;;;;;;0.35;0.10;;;;;;;17.55;89.78;99588.34;8294512;28;20522;-56
2022/12/31 03:54:51;;;;;;;0.08;0.08;;;;;;;17.49;90.38;99600.09;8293099;28;20403;-56
2022/12/31 03:58:51;;;;;;;0.93;0.10;;;;;;;17.50;90.42;99579.06;8293087;28;20033;-56
2022/12/31 04:02:52;;;;;;;0.10;0.00;;;;;;;17.50;89.83;99573.59;8292077;28;20057;-55
2022/12/31 04:06:52;;;;;;;0.10;0.10;;;;;;;17.54;89.02;99575.72;8291843;28;20056;-56
2022/12/31 04:10:53;;;;;;;1.17;0.10;;;;;;;17.47;89.31;99591.25;8293670;28;20404;-56
2022/12/31 04:14:53;;;;;;;1.08;0.10;;;;;;;17.63;88.30;99595.50;8292723;28;20041;-56
2022/12/31 04:18:53;;;;;;;0.93;0.20;;;;;;;17.64;88.10;99594.44;8292681;28;20045;-56
2022/12/31 04:22:54;;;;;;;0.38;0.08;;;;;;;17.57;88.41;99597.16;8293210;28;20068;-57
2022/12/31 04:26:54;;;;;;;0.28;0.10;;;;;;;17.72;87.62;99604.34;8291591;28;20088;-55
2022/12/31 04:30:55;;;;;;;0.17;0.10;;;;;;;17.94;86.06;99598.47;8292436;28;20038;-53
2022/12/31 04:34:55;;;;;;;1.23;0.00;;;;;;;17.97;85.97;99606.25;8291485;28;20500;-54
2022/12/31 04:38:55;;;;;;;2.47;0.20;;;;;;;18.04;85.42;99590.69;8292341;28;20041;-56
2022/12/31 04:42:56;;;;;;;0.65;0.20;;;;;;;18.06;85.33;99617.81;8292165;28;20048;-56
2022/12/31 04:46:56;;;;;;;1.27;0.20;;;;;;;18.06;85.00;99632.34;8290643;28;20274;-55
2022/12/31 04:50:57;;;;;;;0.93;0.10;;;;;;;18.07;84.91;99623.09;8291998;28;20041;-56
2022/12/31 04:54:57;;;;;;;7.55;0.20;;;;;;;18.12;84.69;99630.66;8291104;28;20034;-53
2022/12/31 04:58:58;;;;;;;2.42;0.13;;;;;;;18.17;84.36;99642.66;8289265;28;20042;-55
2022/12/31 05:02:58;;;;;;;0.75;0.28;;;;;;;18.19;84.15;99645.16;8290931;28;20030;-56
2022/12/31 05:06:58;;;;;;;1.48;0.40;;;;;;;18.29;83.56;99632.75;8289443;28;20546;-55
2022/12/31 05:10:59;;;;;;;0.75;0.20;;;;;;;18.24;83.59;99651.69;8291366;28;20042;-52
2022/12/31 05:15:00;;;;;;;2.10;0.30;;;;;;;18.35;83.25;99625.59;8288698;28;20050;-55
2022/12/31 05:19:00;;;;;;;1.13;0.20;;;;;;;18.26;83.73;99635.91;8290866;28;20041;-55
2022/12/31 05:23:01;;;;;;;1.80;0.35;;;;;;;18.18;84.33;99641.63;8289297;28;20041;-56
2022/12/31 05:27:01;;;;;;;1.33;0.30;;;;;;;18.09;85.23;99634.66;8289932;28;20580;-55
2022/12/31 05:31:02;;;;;;;0.85;0.43;;;;;;;18.26;84.43;99660.53;8290317;28;20073;-56
2022/12/31 05:35:03;;;;;;;3.17;0.40;;;;;;;18.28;84.48;99650.25;8289262;28;20129;-56
2022/12/31 05:39:03;;;;;;;3.10;0.30;;;;;;;18.15;85.31;99647.50;8289824;28;20073;-56
2022/12/31 05:43:04;;;;;;;4.43;0.43;;;;;;;18.06;85.92;99628.75;8290202;28;20073;-52
2022/12/31 05:47:04;;;;;;;1.05;0.20;;;;;;;17.98;86.84;99607.94;8289077;28;20042;-56
2022/12/31 05:51:05;;;;;;;4.90;0.40;;;;;;;18.03;86.52;99640.97;8287517;28;20117;-56
2022/12/31 05:55:05;;;;;;;1.15;0.40;;;;;;;18.01;86.58;99653.16;8288420;28;20049;-55
2022/12/31 05:59:06;;;;;;;1.58;0.30;;;;;;;18.04;86.17;99650.84;8288768;28;20514;-56
2022/12/31 06:03:06;;;;;;;1.15;0.30;;;;;;;18.04;86.04;99652.75;8289655;28;20048;-53
2022/12/31 06:07:07;;;;;;;2.90;0.30;;;;;;;18.04;85.68;99664.53;8288750;28;20496;-53
2022/12/31 06:11:07;;;;;;;0.55;0.20;;;;;;;17.99;85.49;99658.84;8289898;28;20042;-56
2022/12/31 06:15:09;;;;;;;2.03;0.30;;;;;;;18.15;84.50;99685.81;8288832;28;20621;-55
2022/12/31 06:19:09;;;;;;;0.80;0.22;;;;;;;18.15;84.45;99698.63;8289024;28;20482;-53
2022/12/31 06:23:10;;;;;;;3.55;0.25;;;;;;;18.23;83.98;99707.47;8287655;28;20065;-56
2022/12/31 06:27:11;;;;;;;2.08;0.20;;;;;;;18.38;83.64;99719.09;8280552;28;20426;-56
2022/12/31 06:31:13;;;;;;;1.55;0.30;;;;;;;18.42;83.47;99717.63;8268735;28;20821;-55
2022/12/31 06:35:14;;;;;;;4.50;0.30;;;;;;;18.48;83.10;99705.81;8274715;28;20041;-55
2022/12/31 06:39:14;;;;;;;3.60;0.40;;;;;;;18.56;83.04;99730.25;8269495;28;20037;-56
2022/12/31 06:43:15;;;;;;;3.83;0.70;;;;;;;18.55;83.41;99738.69;8268915;28;20045;-56
2022/12/31 06:47:15;;;;;;;4.63;0.40;;;;;;;18.53;83.48;99736.16;8266790;28;20041;-56
2022/12/31 06:51:18;;;;;;;0.38;0.30;;;;;;;18.50;83.51;99742.06;8280778;28;20042;-56
2022/12/31 06:55:19;;;;;;;1.45;0.30;;;;;;;18.37;84.25;99731.13;8287591;28;20045;-56
2022/12/31 06:59:24;;;;;;;2.53;0.60;;;;;;;18.43;83.59;99751.31;8294083;28;20038;-56
2022/12/31 07:03:38;;;;;;;3.40;0.43;;;;;;;18.57;82.83;99753.84;8295066;28;20112;-56
2022/12/31 07:08:13;;;;;;;2.95;0.50;;;;;;;18.62;82.42;99743.13;8293778;28;20809;-52
2022/12/31 07:17:26;;;;;;;3.10;0.40;;;;;;;18.55;82.35;99744.16;8320593;28;21010;-52
2022/12/31 07:21:33;;;;;;;1.95;0.40;;;;;;;18.53;82.29;99757.22;8311360;28;20038;-52
2022/12/31 07:25:37;;;;;;;0.73;0.30;;;;;;;18.60;81.42;99758.91;8317134;28;20054;-54
2022/12/31 07:30:00;;;;;;;2.72;0.40;;;;;;;18.61;81.02;99763.34;8314666;28;20046;-54
2022/12/31 07:34:17;;;;;;;1.92;0.30;;;;;;;18.69;80.63;99762.25;8307285;28;20042;-53
2022/12/31 07:38:57;;;;;;;2.20;0.38;;;;;;;18.61;81.11;99766.09;8316384;28;20033;-55
2022/12/31 07:43:06;;;;;;;2.03;0.60;;;;;;;18.46;82.11;99779.13;8309378;28;20042;-54
2022/12/31 07:47:19;;;;;;;0.73;0.30;;;;;;;18.43;81.86;99774.06;8295781;28;20046;-53
2022/12/31 07:51:20;;;;;;;0.40;0.20;;;;;;;18.58;81.17;99766.50;8313667;28;20122;-51
2022/12/31 07:55:21;;;;;;;1.38;0.20;;;;;;;18.64;80.76;99776.63;8316333;28;20044;-54
2022/12/31 07:59:51;;;;;;;2.10;0.40;;;;;;;18.61;80.86;99777.03;8309459;28;20041;-55
2022/12/31 08:04:04;;;;;;;1.05;0.47;;;;;;;18.56;81.13;99795.97;8306178;28;20044;-55
2022/12/31 08:12:19;;;;;;;2.40;0.40;;;;;;;18.56;81.07;99795.13;8321067;28;20389;-53
2022/12/31 08:16:20;;;;;;;3.00;0.32;;;;;;;18.60;80.41;99791.75;8315493;28;20326;-55
2022/12/31 08:20:21;;;;;;;1.27;0.52;;;;;;;18.61;80.44;99804.41;8314731;28;20073;-54
2022/12/31 08:24:54;;;;;;;2.58;0.55;;;;;;;18.64;80.47;99812.22;8317277;28;20042;-54
2022/12/31 08:29:06;;;;;;;0.98;0.70;;;;;;;18.66;80.56;99809.25;8301579;28;20408;-55
2022/12/31 08:33:25;;;;;;;1.60;0.50;;;;;;;18.69;80.22;99815.16;8312743;28;20042;-55
2022/12/31 08:37:43;;;;;;;2.55;0.40;;;;;;;18.72;80.35;99822.94;8283181;28;20076;-57
2022/12/31 08:41:48;;;;;;;1.95;0.40;;;;;;;18.68;80.73;99826.31;8284554;28;20131;-56
2022/12/31 08:45:52;;;;;;;2.47;0.43;;;;;;;18.78;80.11;99844.00;8301664;28;20062;-57
2022/12/31 08:49:54;;;;;;;1.88;0.43;;;;;;;18.76;80.22;99840.63;8315471;28;20048;-56
2022/12/31 08:53:55;;;;;;;0.95;0.40;;;;;;;18.84;80.07;99834.97;8316752;28;20049;-55
2022/12/31 09:02:48;;;;;;;2.22;0.70;;;;;;;19.01;79.27;99840.88;8309122;27;20448;-55
2022/12/31 09:06:56;;;;;;;2.38;0.38;;;;;;;18.96;79.46;99849.72;8286591;28;20145;-53
2022/12/31 09:11:11;;;;;;;2.05;0.50;;;;;;;19.04;79.21;99860.47;8282128;28;20042;-56
2022/12/31 09:15:24;;;;;;;2.95;0.60;;;;;;;19.05;79.33;99873.13;8280131;28;20042;-55
2022/12/31 09:19:24;;;;;;;1.80;0.60;;;;;;;19.02;79.24;99881.75;8274796;28;20104;-55
2022/12/31 09:23:24;;;;;;;1.92;0.50;;;;;;;19.18;78.61;99895.03;8289748;28;20092;-55
2022/12/31 09:27:49;;;;;;;1.90;0.40;;;;;;;19.19;78.06;99904.94;8296987;28;20034;-55
2022/12/31 09:31:58;;;;;;;3.40;0.70;;;;;;;19.18;78.28;99900.50;8279259;28;20124;-54
2022/12/31 09:36:04;;;;;;;2.08;0.70;;;;;;;19.19;78.19;99932.34;8282108;28;20047;-56
2022/12/31 09:40:30;;;;;;;3.28;0.70;;;;;;;19.25;77.70;99939.72;8282773;28;20050;-55
2022/12/31 09:45:11;;;;;;;3.90;0.57;;;;;;;19.26;77.76;99943.31;8273109;28;20125;-56
2022/12/31 09:49:51;;;;;;;2.17;0.45;;;;;;;19.18;78.03;99947.09;8273647;28;20531;-55
2022/12/31 09:54:18;;;;;;;2.00;0.50;;;;;;;19.21;77.60;99971.34;8256330;28;20111;-55
2022/12/31 10:03:19;;;;;;;3.03;0.45;;;;;;;19.27;77.40;99975.16;8283883;27;20383;-56
2022/12/31 10:07:45;;;;;;;3.22;0.60;;;;;;;19.30;77.27;99975.59;8302105;28;20073;-55
2022/12/31 10:12:26;;;;;;;3.58;0.60;;;;;;;19.33;77.17;99969.72;8302959;28;20133;-53
2022/12/31 10:17:06;;;;;;;3.15;0.60;;;;;;;19.25;77.35;99964.38;8299178;28;20053;-55
2022/12/31 10:21:34;;;;;;;2.20;0.50;;;;;;;19.32;77.02;99972.66;8297433;28;20042;-56
2022/12/31 10:26:05;;;;;;;1.27;0.70;;;;;;;19.43;76.59;99961.91;8292818;28;20563;-56
2022/12/31 10:35:08;;;;;;;2.15;0.55;;;;;;;19.41;76.93;99988.69;8298373;28;20399;-56
2022/12/31 10:39:40;;;;;;;2.95;0.50;;;;;;;19.37;77.41;99981.94;8275391;28;20038;-56
2022/12/31 10:44:16;;;;;;;5.53;0.60;;;;;;;19.44;76.75;99976.47;8273543;28;20058;-55
2022/12/31 10:48:56;;;;;;;2.38;0.55;;;;;;;19.48;76.71;99962.13;8278551;28;20042;-56
2022/12/31 10:57:43;;;;;;;2.47;0.40;;;;;;;19.54;75.82;99959.59;8311546;28;20394;-55
2022/12/31 11:06:43;;;;;;;3.72;0.60;;;;;;;19.56;75.73;99977.53;8347774;27;20380;-54
2022/12/31 11:11:24;;;;;;;3.53;0.57;;;;;;;19.72;74.97;99989.94;8335779;28;20041;-54
2022/12/31 11:15:54;;;;;;;4.93;0.60;;;;;;;19.76;74.92;99963.78;8324324;28;20034;-55
2022/12/31 11:20:34;;;;;;;1.98;0.47;;;;;;;19.83;73.97;99965.47;8314623;28;20038;-56
2022/12/31 11:30:00;;;;;;;3.85;0.60;;;;;;;19.77;74.37;99959.97;8336154;27;20442;-57
2022/12/31 11:34:40;;;;;;;3.50;0.85;;;;;;;19.67;74.67;99965.06;8340932;28;20045;-55
2022/12/31 11:39:23;;;;;;;4.68;1.27;;;;;;;19.61;75.12;99949.47;8347701;28;20415;-54
2022/12/31 11:43:31;;;;;;;3.60;0.93;;;;;;;19.59;74.74;99962.53;8336666;28;20467;-55
2022/12/31 11:48:08;;;;;;;2.25;0.68;;;;;;;19.51;75.21;99954.53;8348550;28;20044;-55
2022/12/31 11:52:38;;;;;;;3.05;0.70;;;;;;;19.35;76.11;99951.16;8344098;28;20049;-54
2022/12/31 11:56:54;;;;;;;4.93;0.65;;;;;;;19.48;75.18;99940.19;8346337;28;20036;-54
2022/12/31 12:00:59;;;;;;;3.83;0.93;;;;;;;19.51;75.00;99949.88;8348093;28;20037;-54
2022/12/31 12:05:05;;;;;;;5.00;1.15;;;;;;;19.54;74.74;99954.13;8362346;28;20065;-54
2022/12/31 12:09:14;;;;;;;4.72;0.80;;;;;;;19.51;75.35;99962.75;8348943;28;20280;-56
2022/12/31 12:13:21;;;;;;;4.18;0.75;;;;;;;19.48;75.41;99954.97;8319663;28;20099;-56
2022/12/31 12:17:31;;;;;;;3.80;0.93;;;;;;;19.63;74.47;99974.75;8304329;28;20064;-56
2022/12/31 12:21:32;;;;;;;3.08;0.60;;;;;;;19.71;73.72;99971.81;8315402;28;20049;-54
2022/12/31 12:25:39;;;;;;;1.75;0.65;;;;;;;19.87;73.52;99961.22;8312501;28;20033;-56
2022/12/31 12:29:39;;;;;;;3.17;0.70;;;;;;;20.06;72.51;99959.53;8312463;28;20112;-55
2022/12/31 12:33:42;;;;;;;2.83;0.77;;;;;;;20.01;72.43;99951.06;8311695;28;20046;-56
2022/12/31 12:37:43;;;;;;;3.85;1.00;;;;;;;19.90;72.25;99955.31;8308456;28;20038;-57
2022/12/31 12:41:43;;;;;;;3.55;1.08;;;;;;;19.77;74.23;99959.97;8292138;28;20033;-56
2022/12/31 12:45:46;;;;;;;11.90;3.90;;;;;;;19.71;73.59;99955.34;8290764;28;20049;-55
2022/12/31 12:49:51;;;;;;;5.70;2.38;;;;;;;19.71;72.28;99980.03;8287537;28;20033;-56
2022/12/31 12:54:07;;;;;;;6.25;2.33;;;;;;;19.76;71.24;99981.06;8286743;28;20038;-55
2022/12/31 13:03:10;;;;;;;4.43;0.77;;;;;;;19.63;72.07;99997.56;8307356;28;20371;-56
2022/12/31 13:07:23;;;;;;;5.00;0.90;;;;;;;19.61;71.46;100004.31;8304856;28;20049;-56
2022/12/31 13:11:51;;;;;;;4.10;1.30;;;;;;;19.55;72.20;100019.72;8275562;28;20045;-56
2022/12/31 13:16:18;;;;;;;2.72;0.60;;;;;;;19.37;74.84;100031.28;8301552;28;20030;-57
2022/12/31 13:20:58;;;;;;;2.80;0.52;;;;;;;18.93;79.21;100033.69;8308180;28;20087;-56
2022/12/31 13:25:25;;;;;;;3.95;0.90;;;;;;;18.60;82.09;100037.34;8309276;28;20117;-56
2022/12/31 13:29:30;;;;;;;2.78;0.95;;;;;;;18.42;84.03;100024.19;8314079;28;20053;-55
2022/12/31 13:33:37;;;;;;;1.30;0.65;;;;;;;18.29;83.39;100021.34;8306977;28;20054;-54
2022/12/31 13:37:40;;;;;;;1.75;1.10;;;;;;;18.27;83.98;100042.59;8305492;28;20034;-56
2022/12/31 13:41:50;;;;;;;5.17;0.90;;;;;;;18.21;85.06;100016.03;8322733;22;20522;-89
2022/12/31 13:46:04;;;;;;;3.20;0.95;;;;;;;18.23;85.55;100024.91;8276336;23;20049;-56
2022/12/31 13:50:20;;;;;;;2.90;0.70;;;;;;;18.19;85.18;100017.28;8271953;28;20861;-55
2022/12/31 13:54:45;;;;;;;6.45;1.88;;;;;;;18.15;86.00;100010.53;8269824;28;20035;-53
2022/12/31 13:58:52;;;;;;;8.30;3.58;;;;;;;17.93;89.29;99996.09;8279155;28;20101;-55
2022/12/31 14:03:17;;;;;;;18.45;7.82;;;;;;;17.66;92.64;99988.75;8288949;28;20038;-56
2022/12/31 14:07:22;;;;;;;13.60;4.38;;;;;;;17.54;93.77;99984.88;8280654;28;20050;-56
2022/12/31 14:11:52;;;;;;;2.13;0.80;;;;;;;17.68;90.86;99975.72;8270625;28;20042;-56
2022/12/31 14:16:18;;;;;;;1.90;0.93;;;;;;;17.73;90.43;99962.31;8215778;28;20038;-56
2022/12/31 14:20:35;;;;;;;1.60;0.70;;;;;;;17.97;88.08;99959.09;8256754;28;20054;-54
2022/12/31 14:24:46;;;;;;;3.90;1.00;;;;;;;18.15;86.15;99967.63;8248601;28;20042;-55
2022/12/31 14:28:56;;;;;;;3.10;0.82;;;;;;;18.24;85.09;99955.44;8259354;28;20486;-58
2022/12/31 14:33:17;;;;;;;3.75;1.30;;;;;;;18.17;84.56;99960.03;8258252;28;20042;-56
2022/12/31 14:37:45;;;;;;;1.48;0.82;;;;;;;18.30;83.37;99948.31;8258186;28;20050;-56
2022/12/31 14:42:14;;;;;;;4.03;0.93;;;;;;;18.36;82.75;99947.50;8259072;28;20390;-55
2022/12/31 14:46:41;;;;;;;6.10;1.35;;;;;;;18.25;83.46;99970.81;8257058;28;20117;-56
2022/12/31 14:50:45;;;;;;;4.32;1.10;;;;;;;18.20;83.38;99959.63;8254784;28;20039;-57
2022/12/31 14:55:16;;;;;;;3.15;0.95;;;;;;;18.11;83.68;99966.31;8248944;28;20041;-56
2022/12/31 14:59:24;;;;;;;1.23;0.70;;;;;;;18.33;81.78;99970.63;8240180;28;20046;-56
2022/12/31 15:03:35;;;;;;;3.20;1.17;;;;;;;18.21;82.48;99972.25;8244363;28;20038;-56
2022/12/31 15:07:50;;;;;;;4.47;0.80;;;;;;;18.12;82.95;99978.97;8243770;28;20042;-56
2022/12/31 15:12:30;;;;;;;4.07;1.00;;;;;;;18.11;82.56;99993.69;8254809;28;20038;-56
2022/12/31 15:16:46;;;;;;;4.45;1.10;;;;;;;18.08;81.67;100001.47;8248604;28;20350;-59
2022/12/31 15:25:28;;;;;;;5.38;0.95;;;;;;;17.94;81.38;100019.69;8352624;27;20426;-59
2022/12/31 15:29:42;;;;;;;1.90;1.00;;;;;;;17.86;80.45;100022.56;8330666;28;20242;-59
2022/12/31 15:34:01;;;;;;;4.85;1.27;;;;;;;17.76;80.61;100021.22;8315555;28;20038;-55
2022/12/31 15:42:45;;;;;;;3.25;1.00;;;;;;;17.76;80.68;100021.22;8299825;28;20397;-57
2022/12/31 15:46:50;;;;;;;6.35;1.00;;;;;;;17.62;80.82;100016.69;8273787;28;20034;-57
2022/12/31 15:50:55;;;;;;;6.75;0.98;;;;;;;17.64;80.21;100009.97;8263648;28;20145;-57
2022/12/31 15:54:56;;;;;;;3.55;0.88;;;;;;;17.58;80.51;100016.25;8285601;28;20048;-56
2022/12/31 15:59:00;;;;;;;2.90;0.93;;;;;;;17.49;80.70;100017.41;8281200;28;20053;-58
2022/12/31 16:03:01;;;;;;;4.40;1.23;;;;;;;17.51;80.56;100018.91;8263197;28;20092;-58
2022/12/31 16:07:02;;;;;;;3.55;1.00;;;;;;;17.50;80.26;100017.22;8276885;28;20141;-58
2022/12/31 16:11:06;;;;;;;4.93;1.25;;;;;;;17.44;80.48;100017.16;8264945;28;20053;-55
2022/12/31 16:15:17;;;;;;;2.28;0.90;;;;;;;17.52;80.07;100025.22;8269176;28;20084;-58
2022/12/31 16:19:39;;;;;;;3.83;0.93;;;;;;;17.60;78.78;100005.97;8298075;28;20042;-57
2022/12/31 16:23:49;;;;;;;2.58;0.93;;;;;;;17.59;78.68;100007.84;8276065;28;20419;-59
2022/12/31 16:27:51;;;;;;;7.13;1.50;;;;;;;17.45;78.94;100005.19;8283057;28;20042;-55
2022/12/31 16:31:52;;;;;;;2.13;0.75;;;;;;;17.50;78.46;100014.50;8275630;28;20034;-57
2022/12/31 16:35:56;;;;;;;2.90;0.95;;;;;;;17.43;77.92;100004.53;8272835;28;20507;-55
2022/12/31 16:44:28;;;;;;;5.68;1.48;;;;;;;17.32;78.30;100035.94;8392458;27;20860;-58
2022/12/31 16:48:29;;;;;;;3.45;1.27;;;;;;;17.36;77.44;100022.75;8400597;27;20032;-57
2022/12/31 16:52:32;;;;;;;3.55;1.25;;;;;;;17.25;77.73;100035.03;8406639;28;20130;-59
2022/12/31 16:56:38;;;;;;;4.80;1.50;;;;;;;17.23;77.12;100030.81;8405173;27;20040;-57
2022/12/31 17:00:39;;;;;;;5.50;1.70;;;;;;;16.98;78.22;100026.75;8398352;27;20451;-57
2022/12/31 17:04:39;;;;;;;4.85;1.20;;;;;;;17.04;76.82;100031.44;8392817;27;20040;-58
2022/12/31 17:08:43;;;;;;;4.38;1.45;;;;;;;17.00;76.80;100032.88;8391508;27;20078;-56
2022/12/31 17:12:47;;;;;;;3.43;1.03;;;;;;;17.01;76.53;100031.81;8423730;27;20123;-54
2022/12/31 17:17:07;;;;;;;4.43;1.45;;;;;;;16.93;76.78;100030.06;8415334;27;20266;-57
2022/12/31 17:21:10;;;;;;;5.45;1.60;;;;;;;16.99;76.17;100017.53;8412471;27;20055;-56
2022/12/31 17:25:24;;;;;;;6.72;1.67;;;;;;;17.04;75.34;100004.13;8397218;27;20420;-57
2022/12/31 17:29:24;;;;;;;2.90;1.52;;;;;;;17.01;75.12;100001.78;8398720;27;20033;-56
2022/12/31 17:33:27;;;;;;;5.28;1.50;;;;;;;17.07;74.46;100006.47;8388625;28;20071;-58
2022/12/31 17:37:29;;;;;;;5.93;1.45;;;;;;;16.98;74.66;99993.97;8408012;28;20527;-57
2022/12/31 17:41:30;;;;;;;4.68;1.17;;;;;;;16.92;75.07;99983.81;8402975;28;20044;-56
2022/12/31 17:45:36;;;;;;;4.43;1.17;;;;;;;17.03;73.74;99965.06;8405043;28;20511;-56
2022/12/31 17:49:36;;;;;;;3.70;1.40;;;;;;;17.19;72.57;99963.94;8411778;28;20044;-58
2022/12/31 17:53:37;;;;;;;5.68;1.80;;;;;;;17.22;72.23;99963.53;8397787;28;20097;-52
2022/12/31 17:57:47;;;;;;;2.47;1.00;;;;;;;17.34;71.23;99948.28;8386362;28;20047;-58
2022/12/31 18:01:48;;;;;;;5.93;1.55;;;;;;;17.28;70.89;99980.00;8387563;28;20033;-57
2022/12/31 18:05:49;;;;;;;3.00;1.40;;;;;;;17.12;71.38;99963.88;8402100;27;20040;-58
2022/12/31 18:09:49;;;;;;;5.53;1.77;;;;;;;17.20;70.17;99968.38;8391028;28;20151;-54
2022/12/31 18:13:51;;;;;;;5.97;1.27;;;;;;;17.07;71.41;99981.88;8375568;28;20044;-57
2022/12/31 18:17:52;;;;;;;8.05;2.15;;;;;;;17.00;70.90;99964.59;8386929;28;20197;-54
2022/12/31 18:21:52;;;;;;;9.40;2.90;;;;;;;17.02;69.91;99978.91;8373562;28;20151;-56
2022/12/31 18:25:53;;;;;;;5.45;1.00;;;;;;;16.87;71.14;99975.38;8384219;28;20041;-57
2022/12/31 18:29:54;;;;;;;3.05;2.25;;;;;;;16.83;71.46;99971.34;8369091;28;20033;-55
2022/12/31 18:33:57;;;;;;;3.10;1.70;;;;;;;16.62;72.32;99972.16;8419783;28;20086;-57
2022/12/31 18:37:57;;;;;;;5.75;1.90;;;;;;;16.70;71.07;99976.66;8385368;28;20509;-56
2022/12/31 18:41:58;;;;;;;5.75;1.63;;;;;;;16.91;69.58;99960.31;8393296;28;20408;-54
2022/12/31 18:45:58;;;;;;;3.92;2.00;;;;;;;16.92;69.35;99967.44;8382572;28;20044;-57
2022/12/31 18:49:58;;;;;;;9.90;1.73;;;;;;;16.90;69.21;99975.00;8386728;28;20040;-57
2022/12/31 18:54:00;;;;;;;12.10;2.97;;;;;;;16.78;69.59;99960.16;8378313;28;20040;-56
2022/12/31 18:58:00;;;;;;;8.38;2.53;;;;;;;16.93;67.96;99964.50;8385881;28;20040;-55
2022/12/31 19:02:01;;;;;;;7.03;2.05;;;;;;;17.02;67.53;99976.19;8418833;28;20037;-56
2022/12/31 19:06:01;;;;;;;11.13;2.00;;;;;;;17.15;66.70;99958.03;8369678;28;20807;-55
2022/12/31 19:10:02;;;;;;;11.77;1.63;;;;;;;17.26;65.57;99967.59;8383590;28;20447;-56
2022/12/31 19:14:02;;;;;;;6.07;1.75;;;;;;;17.21;66.48;99964.59;8386173;28;20156;-57
2022/12/31 19:18:03;;;;;;;4.63;1.45;;;;;;;17.24;65.93;99966.94;8384183;28;20048;-55
2022/12/31 19:22:03;;;;;;;4.35;1.73;;;;;;;17.22;66.16;99955.34;8385798;28;20052;-57
2022/12/31 19:26:04;;;;;;;6.20;2.00;;;;;;;17.35;64.59;99975.44;8380387;28;20040;-56
2022/12/31 19:30:08;;;;;;;6.95;1.58;;;;;;;17.16;65.88;99964.31;8377318;28;20040;-57
2022/12/31 19:34:09;;;;;;;6.90;1.80;;;;;;;17.31;64.20;99973.28;8366663;28;20053;-57
2022/12/31 19:38:17;;;;;;;8.32;1.83;;;;;;;17.33;64.47;99971.22;8381097;28;20039;-54
2022/12/31 19:42:18;;;;;;;8.10;2.05;;;;;;;17.44;63.56;99989.81;8375028;28;20047;-55
2022/12/31 19:46:18;;;;;;;8.40;1.58;;;;;;;17.31;64.06;99995.16;8385280;28;20044;-55
2022/12/31 19:50:23;;;;;;;4.47;1.45;;;;;;;17.07;65.18;100010.06;8382514;28;20032;-56
2022/12/31 19:54:23;;;;;;;;;;;;;;;17.11;64.27;100021.44;8397293;28;20460;-56
2022/12/31 19:58:25;;;;;;;6.40;1.58;;;;;;;17.19;63.47;100029.50;8380861;28;19931;-57
2022/12/31 20:02:25;;;;;;;6.25;1.45;;;;;;;17.28;63.11;100047.44;8380280;28;20080;-54
2022/12/31 20:06:26;;;;;;;5.05;1.77;;;;;;;17.03;64.35;100057.91;8377691;28;20044;-57
2022/12/31 20:10:27;;;;;;;9.10;2.40;;;;;;;17.03;63.54;100054.34;8382626;28;20474;-57
2022/12/31 20:14:27;;;;;;;9.52;2.20;;;;;;;17.00;64.25;100060.19;8382540;28;20059;-57
2022/12/31 20:18:28;;;;;;;8.18;1.85;;;;;;;16.92;64.25;100073.94;8381897;28;20127;-56
2022/12/31 20:22:28;;;;;;;5.85;1.48;;;;;;;16.96;63.26;100078.00;8382656;28;20055;-56